createdAt,value
2023-04-02T00:00:39.000Z,0
2023-04-02T00:02:09.899Z,0
2023-04-02T00:03:26.343Z,0
2023-04-02T00:04:42.538Z,0
2023-04-02T00:05:43.000Z,0
2023-04-02T00:06:59.000Z,0
2023-04-02T00:08:16.000Z,0
2023-04-02T00:09:47.074Z,0
2023-04-02T00:10:47.000Z,0
2023-04-02T00:12:17.752Z,0
2023-04-02T00:13:32.730Z,0
2023-04-02T00:14:48.196Z,0
2023-04-02T00:15:48.000Z,0
2023-04-02T00:17:18.376Z,0
2023-04-02T00:18:34.815Z,0
2023-04-02T00:19:36.000Z,0
2023-04-02T00:20:52.000Z,0
2023-04-02T00:22:23.420Z,0
2023-04-02T00:23:24.000Z,0
2023-04-02T00:24:55.550Z,0
2023-04-02T00:25:57.000Z,0
2023-04-02T00:27:28.190Z,0
2023-04-02T00:27:48.000Z,0
2023-04-02T00:28:29.000Z,0
2023-04-02T00:30:00.592Z,0
2023-04-02T00:31:01.000Z,0
2023-04-02T00:32:32.983Z,0
2023-04-02T00:35:04.380Z,0
2023-04-02T00:36:05.000Z,0
2023-04-02T00:37:36.523Z,0
2023-04-02T00:38:52.965Z,0
2023-04-02T00:40:09.169Z,0
2023-04-02T00:41:10.000Z,0
2023-04-02T00:42:25.000Z,0
2023-04-02T00:43:55.544Z,0
2023-04-02T00:45:11.740Z,0
2023-04-02T00:45:33.000Z,0
2023-04-02T00:46:13.000Z,0
2023-04-02T00:47:44.132Z,0
2023-04-02T00:48:45.000Z,0
2023-04-02T00:50:01.000Z,0
2023-04-02T00:52:49.162Z,0
2023-04-02T00:53:50.000Z,0
2023-04-02T00:55:21.307Z,0
2023-04-02T00:56:22.000Z,0
2023-04-02T00:57:38.000Z,0
2023-04-02T00:58:55.000Z,0
2023-04-02T00:59:30.000Z,0
2023-04-02T01:00:25.360Z,0
2023-04-02T01:01:41.303Z,0
2023-04-02T01:02:57.500Z,0
2023-04-02T01:04:13.696Z,0
2023-04-02T01:06:46.330Z,0
2023-04-02T01:08:02.539Z,0
2023-04-02T01:09:02.000Z,0
2023-04-02T01:10:18.000Z,0
2023-04-02T01:11:33.000Z,0
2023-04-02T01:13:03.399Z,0
2023-04-02T01:14:03.000Z,0
2023-04-02T01:15:33.838Z,0
2023-04-02T01:16:50.024Z,0
2023-04-02T01:18:05.978Z,0
2023-04-02T01:19:07.000Z,0
2023-04-02T01:20:23.000Z,0
2023-04-02T01:21:39.000Z,0
2023-04-02T01:23:10.761Z,0
2023-04-02T01:24:12.000Z,0
2023-04-02T01:25:43.153Z,0
2023-04-02T01:26:44.000Z,0
2023-04-02T01:28:00.000Z,0
2023-04-02T01:29:31.739Z,0
2023-04-02T01:30:48.194Z,0
2023-04-02T01:32:03.387Z,0
2023-04-02T01:33:19.344Z,0
2023-04-02T01:34:20.000Z,0
2023-04-02T01:35:37.000Z,0
2023-04-02T01:36:52.000Z,0
2023-04-02T01:38:23.415Z,0
2023-04-02T01:39:24.000Z,0
2023-04-02T01:40:54.567Z,0
2023-04-02T01:41:55.000Z,0
2023-04-02T01:43:26.239Z,0
2023-04-02T01:44:42.416Z,0
2023-04-02T01:45:57.638Z,0
2023-04-02T01:47:12.845Z,0
2023-04-02T01:48:29.051Z,0
2023-04-02T01:49:30.000Z,0
2023-04-02T01:50:46.000Z,0
2023-04-02T01:52:02.000Z,0
2023-04-02T01:53:33.834Z,0
2023-04-02T01:54:35.000Z,0
2023-04-02T01:56:06.220Z,0
2023-04-02T01:57:22.418Z,0
2023-04-02T01:58:38.613Z,0
2023-04-02T01:59:54.807Z,0
2023-04-02T02:01:10.758Z,0
2023-04-02T02:01:31.000Z,0
2023-04-02T02:02:26.953Z,0
2023-04-02T02:03:27.000Z,0
2023-04-02T02:04:58.604Z,0
2023-04-02T02:05:59.000Z,0
2023-04-02T02:08:46.949Z,0
2023-04-02T02:10:03.144Z,0
2023-04-02T02:11:19.583Z,0
2023-04-02T02:12:19.000Z,0
2023-04-02T02:13:50.030Z,0
2023-04-02T02:15:04.996Z,0
2023-04-02T02:16:20.449Z,0
2023-04-02T02:17:21.000Z,0
2023-04-02T02:18:52.842Z,0
2023-04-02T02:20:09.046Z,0
2023-04-02T02:21:25.236Z,0
2023-04-02T02:22:41.428Z,0
2023-04-02T02:23:57.634Z,0
2023-04-02T02:24:58.000Z,0
2023-04-02T02:26:30.021Z,0
2023-04-02T02:27:31.000Z,0
2023-04-02T02:29:02.426Z,0
2023-04-02T02:30:18.606Z,0
2023-04-02T02:31:34.811Z,0
2023-04-02T02:32:50.024Z,0
2023-04-02T02:34:06.217Z,0
2023-04-02T02:35:22.407Z,0
2023-04-02T02:36:23.000Z,0
2023-04-02T02:37:39.000Z,0
2023-04-02T02:39:11.005Z,0
2023-04-02T02:40:26.945Z,0
2023-04-02T02:41:42.420Z,0
2023-04-02T02:42:42.000Z,0
2023-04-02T02:43:57.000Z,0
2023-04-02T02:45:27.814Z,0
2023-04-02T02:46:44.265Z,0
2023-04-02T02:47:45.000Z,0
2023-04-02T02:49:16.402Z,0
2023-04-02T02:50:17.000Z,0
2023-04-02T02:51:34.000Z,0
2023-04-02T02:52:50.000Z,0
2023-04-02T02:54:21.437Z,0
2023-04-02T02:55:22.000Z,0
2023-04-02T02:56:53.823Z,0
2023-04-02T02:58:09.772Z,0
2023-04-02T02:59:25.968Z,0
2023-04-02T03:00:27.000Z,0
2023-04-02T03:01:57.377Z,0
2023-04-02T03:03:13.573Z,0
2023-04-02T03:04:15.000Z,0
2023-04-02T03:05:45.964Z,0
2023-04-02T03:06:47.000Z,0
2023-04-02T03:08:18.604Z,0
2023-04-02T03:09:19.000Z,0
2023-04-02T03:10:49.775Z,0
2023-04-02T03:11:50.000Z,0
2023-04-02T03:13:06.000Z,0
2023-04-02T03:14:21.000Z,0
2023-04-02T03:15:51.869Z,0
2023-04-02T03:17:08.062Z,0
2023-04-02T03:18:24.007Z,0
2023-04-02T03:19:25.000Z,0
2023-04-02T03:20:41.000Z,0
2023-04-02T03:22:12.835Z,0
2023-04-02T03:23:14.000Z,0
2023-04-02T03:24:45.215Z,0
2023-04-02T03:26:01.170Z,0
2023-04-02T03:27:17.611Z,0
2023-04-02T03:28:33.801Z,0
2023-04-02T03:29:35.000Z,0
2023-04-02T03:30:51.000Z,0
2023-04-02T03:32:21.155Z,0
2023-04-02T03:33:22.000Z,0
2023-04-02T03:34:38.000Z,0
2023-04-02T03:35:54.000Z,0
2023-04-02T03:37:26.174Z,0
2023-04-02T03:37:45.000Z,0
2023-04-02T03:38:27.000Z,0
2023-04-02T03:39:58.317Z,0
2023-04-02T03:40:58.000Z,0
2023-04-02T03:42:29.001Z,0
2023-04-02T03:44:45.000Z,0
2023-04-02T03:46:00.000Z,0
2023-04-02T03:47:31.565Z,0
2023-04-02T03:48:33.000Z,0
2023-04-02T03:50:04.198Z,0
2023-04-02T03:51:20.392Z,0
2023-04-02T03:52:21.000Z,0
2023-04-02T03:53:37.000Z,0
2023-04-02T03:55:08.980Z,0
2023-04-02T03:56:10.000Z,0
2023-04-02T03:57:41.114Z,0
2023-04-02T03:58:42.000Z,0
2023-04-02T04:00:13.750Z,0
2023-04-02T04:01:14.000Z,0
2023-04-02T04:02:44.906Z,0
2023-04-02T04:04:01.349Z,0
2023-04-02T04:05:17.544Z,0
2023-04-02T04:06:33.486Z,0
2023-04-02T04:07:49.932Z,0
2023-04-02T04:08:51.000Z,0
2023-04-02T04:10:22.068Z,0
2023-04-02T04:11:37.288Z,0
2023-04-02T04:12:52.747Z,0
2023-04-02T04:13:53.000Z,0
2023-04-02T04:15:25.140Z,0
2023-04-02T04:16:25.000Z,0
2023-04-02T04:17:55.582Z,0
2023-04-02T04:18:56.000Z,0
2023-04-02T04:20:27.702Z,0
2023-04-02T04:21:43.895Z,0
2023-04-02T04:23:00.338Z,0
2023-04-02T04:24:01.000Z,0
2023-04-02T04:25:32.477Z,0
2023-04-02T04:26:33.000Z,0
2023-04-02T04:28:04.864Z,0
2023-04-02T04:28:25.000Z,0
2023-04-02T04:29:06.000Z,0
2023-04-02T04:30:22.000Z,0
2023-04-02T04:31:53.694Z,0
2023-04-02T04:33:09.639Z,0
2023-04-02T04:35:41.043Z,0
2023-04-02T04:37:28.742Z,0
2023-04-02T04:37:58.000Z,0
2023-04-02T04:39:29.868Z,0
2023-04-02T04:40:46.060Z,0
2023-04-02T04:41:47.000Z,0
2023-04-02T04:43:17.480Z,0
2023-04-02T04:44:32.442Z,0
2023-04-02T04:45:32.000Z,0
2023-04-02T04:46:08.000Z,4
2023-04-02T04:47:02.873Z,0
2023-04-02T04:48:19.066Z,0
2023-04-02T04:49:20.000Z,4
2023-04-02T04:50:51.697Z,0
2023-04-02T04:53:24.085Z,4
2023-04-02T04:53:45.000Z,12
2023-04-02T04:54:40.285Z,4
2023-04-02T04:55:56.228Z,8
2023-04-02T04:57:12.672Z,8
2023-04-02T04:58:13.000Z,12
2023-04-02T05:00:46.000Z,16
2023-04-02T05:02:17.196Z,16
2023-04-02T05:03:32.407Z,16
2023-04-02T05:04:33.000Z,20
2023-04-02T05:06:05.042Z,24
2023-04-02T05:06:25.000Z,48
2023-04-02T05:07:06.000Z,28
2023-04-02T05:08:37.436Z,32
2023-04-02T05:09:53.624Z,32
2023-04-02T05:11:09.822Z,44
2023-04-02T05:13:25.000Z,56
2023-04-02T05:14:41.000Z,52
2023-04-02T05:16:12.638Z,64
2023-04-02T05:17:13.000Z,72
2023-04-02T05:18:44.773Z,72
2023-04-02T05:19:46.000Z,84
2023-04-02T05:21:02.000Z,88
2023-04-02T05:22:33.601Z,104
2023-04-02T05:23:34.000Z,112
2023-04-02T05:24:50.000Z,108
2023-04-02T05:26:22.181Z,124
2023-04-02T05:27:38.129Z,120
2023-04-02T05:28:54.323Z,124
2023-04-02T05:29:54.000Z,136
2023-04-02T05:31:10.000Z,152
2023-04-02T05:32:41.920Z,168
2023-04-02T05:33:58.370Z,172
2023-04-02T05:35:14.307Z,184
2023-04-02T05:36:30.501Z,216
2023-04-02T05:37:31.000Z,212
2023-04-02T05:39:02.170Z,232
2023-04-02T05:40:17.125Z,240
2023-04-02T05:41:17.000Z,240
2023-04-02T05:42:47.555Z,252
2023-04-02T05:44:02.776Z,272
2023-04-02T05:45:17.986Z,268
2023-04-02T05:46:34.180Z,268
2023-04-02T05:47:34.000Z,288
2023-04-02T05:49:04.610Z,316
2023-04-02T05:50:06.000Z,320
2023-04-02T05:51:21.000Z,336
2023-04-02T05:52:37.000Z,368
2023-04-02T05:53:53.000Z,372
2023-04-02T05:55:09.000Z,396
2023-04-02T05:56:40.793Z,456
2023-04-02T05:57:56.987Z,436
2023-04-02T05:59:13.181Z,444
2023-04-02T06:00:14.000Z,476
2023-04-02T06:01:30.000Z,472
2023-04-02T06:02:47.000Z,484
2023-04-02T06:04:17.956Z,492
2023-04-02T06:05:19.000Z,520
2023-04-02T06:06:50.343Z,480
2023-04-02T06:08:05.553Z,504
2023-04-02T06:09:06.000Z,492
2023-04-02T06:10:23.000Z,544
2023-04-02T06:11:54.134Z,556
2023-04-02T06:13:10.578Z,572
2023-04-02T06:14:25.548Z,640
2023-04-02T06:15:25.000Z,648
2023-04-02T06:16:41.000Z,676
2023-04-02T06:17:56.000Z,708
2023-04-02T06:19:12.000Z,796
2023-04-02T06:20:28.000Z,848
2023-04-02T06:22:00.030Z,912
2023-04-02T06:23:16.211Z,1028
2023-04-02T06:24:17.000Z,1108
2023-04-02T06:25:33.000Z,1160
2023-04-02T06:27:04.791Z,1248
2023-04-02T06:28:05.000Z,1260
2023-04-02T06:29:36.931Z,1180
2023-04-02T06:30:38.000Z,1280
2023-04-02T06:32:09.570Z,1320
2023-04-02T06:33:10.000Z,1404
2023-04-02T06:34:40.965Z,1724
2023-04-02T06:35:02.000Z,1840
2023-04-02T06:36:26.800Z,1616
2023-04-02T06:37:13.359Z,1792
2023-04-02T06:38:14.000Z,1724
2023-04-02T06:39:30.000Z,1760
2023-04-02T06:42:18.129Z,1824
2023-04-02T06:43:18.000Z,2108
2023-04-02T06:44:33.000Z,2528
2023-04-02T06:46:04.508Z,2396
2023-04-02T06:47:20.961Z,2480
2023-04-02T06:48:21.000Z,2528
2023-04-02T06:49:51.132Z,2664
2023-04-02T06:50:52.000Z,2508
2023-04-02T06:52:08.000Z,2412
2023-04-02T06:53:24.000Z,2428
2023-04-02T06:54:41.000Z,2336
2023-04-02T06:56:12.101Z,2408
2023-04-02T06:57:28.548Z,1960
2023-04-02T06:58:44.488Z,1948
2023-04-02T06:59:45.000Z,1900
2023-04-02T07:00:21.000Z,1884
2023-04-02T07:02:06.631Z,1876
2023-04-02T07:02:33.070Z,1928
2023-04-02T07:03:49.511Z,1972
2023-04-02T07:05:05.457Z,1996
2023-04-02T07:07:36.860Z,1736
2023-04-02T07:08:38.000Z,1676
2023-04-02T07:09:54.000Z,1484
2023-04-02T07:11:10.000Z,1428
2023-04-02T07:12:41.635Z,1680
2023-04-02T07:14:28.517Z,1640
2023-04-02T07:15:13.049Z,1604
2023-04-02T07:16:14.000Z,1716
2023-04-02T07:17:44.710Z,2120
2023-04-02T07:18:44.000Z,2200
2023-04-02T07:20:01.000Z,2300
2023-04-02T07:21:17.000Z,2504
2023-04-02T07:22:33.000Z,2888
2023-04-02T07:23:49.000Z,3228
2023-04-02T07:25:05.000Z,3196
2023-04-02T07:26:37.076Z,3284
2023-04-02T07:27:53.286Z,3524
2023-04-02T07:28:54.000Z,3212
2023-04-02T07:30:25.665Z,4088
2023-04-02T07:31:26.000Z,4104
2023-04-02T07:32:43.000Z,4232
2023-04-02T07:33:59.000Z,4756
2023-04-02T07:35:29.209Z,4372
2023-04-02T07:36:45.402Z,4160
2023-04-02T07:37:46.000Z,4560
2023-04-02T07:38:22.000Z,3784
2023-04-02T07:40:08.347Z,4664
2023-04-02T07:40:19.000Z,4272
2023-04-02T07:41:35.000Z,4104
2023-04-02T07:43:06.647Z,3776
2023-04-02T07:45:22.000Z,3148
2023-04-02T07:46:38.000Z,2944
2023-04-02T07:47:53.000Z,3016
2023-04-02T07:49:23.423Z,3284
2023-04-02T07:50:39.864Z,3336
2023-04-02T07:51:41.000Z,2996
2023-04-02T07:53:12.247Z,3036
2023-04-02T07:54:28.445Z,3080
2023-04-02T07:55:44.644Z,2692
2023-04-02T07:56:45.000Z,3044
2023-04-02T07:58:17.022Z,2816
2023-04-02T07:59:18.000Z,2500
2023-04-02T08:00:34.000Z,2744
2023-04-02T08:01:50.000Z,2700
2023-04-02T08:03:21.804Z,2768
2023-04-02T08:04:22.000Z,2912
2023-04-02T08:05:53.205Z,3096
2023-04-02T08:07:51.563Z,3064
2023-04-02T08:08:25.610Z,3112
2023-04-02T08:09:41.790Z,3396
2023-04-02T08:10:42.000Z,2892
2023-04-02T08:11:59.000Z,2844
2023-04-02T08:13:15.000Z,2884
2023-04-02T08:14:30.000Z,2788
2023-04-02T08:15:45.000Z,2904
2023-04-02T08:18:06.103Z,2700
2023-04-02T08:18:17.000Z,2584
2023-04-02T08:20:07.516Z,2656
2023-04-02T08:21:03.630Z,2788
2023-04-02T08:22:04.000Z,2920
2023-04-02T08:23:36.012Z,2932
2023-04-02T08:24:37.000Z,2700
2023-04-02T08:25:53.000Z,2776
2023-04-02T08:27:09.000Z,3040
2023-04-02T08:28:40.529Z,3448
2023-04-02T08:29:02.000Z,2928
2023-04-02T08:29:41.000Z,3500
2023-04-02T08:30:58.000Z,3476
2023-04-02T08:32:14.000Z,3492
2023-04-02T08:33:30.000Z,3296
2023-04-02T08:36:16.959Z,3116
2023-04-02T08:37:18.000Z,3172
2023-04-02T08:38:34.000Z,3584
2023-04-02T08:39:50.000Z,3280
2023-04-02T08:41:21.483Z,3536
2023-04-02T08:42:22.000Z,3000
2023-04-02T08:43:54.125Z,2892
2023-04-02T08:45:09.335Z,2780
2023-04-02T08:46:24.300Z,3024
2023-04-02T08:47:25.000Z,2996
2023-04-02T08:48:02.000Z,3948
2023-04-02T08:48:41.000Z,3696
2023-04-02T08:50:12.881Z,3732
2023-04-02T08:51:29.328Z,3844
2023-04-02T08:52:30.000Z,3868
2023-04-02T08:56:07.817Z,3632
2023-04-02T08:56:19.000Z,4612
2023-04-02T08:57:35.000Z,4404
2023-04-02T08:59:06.235Z,4116
2023-04-02T08:59:26.000Z,3752
2023-04-02T09:00:07.000Z,4152
2023-04-02T09:01:38.871Z,3772
2023-04-02T09:02:39.000Z,3940
2023-04-02T09:03:55.000Z,3424
2023-04-02T09:06:42.669Z,2980
2023-04-02T09:07:43.000Z,3296
2023-04-02T09:09:00.000Z,2828
2023-04-02T09:10:30.995Z,2824
2023-04-02T09:11:31.000Z,2896
2023-04-02T09:12:46.000Z,3160
2023-04-02T09:14:02.000Z,2644
2023-04-02T09:15:19.000Z,2896
2023-04-02T09:16:50.258Z,3040
2023-04-02T09:18:06.200Z,3188
2023-04-02T09:19:07.000Z,2712
2023-04-02T09:20:23.000Z,2656
2023-04-02T09:21:54.782Z,2536
2023-04-02T09:22:56.000Z,2632
2023-04-02T09:24:27.425Z,2240
2023-04-02T09:25:28.000Z,2500
2023-04-02T09:26:44.000Z,2688
2023-04-02T09:28:00.000Z,2752
2023-04-02T09:29:31.206Z,2776
2023-04-02T09:30:32.000Z,3148
2023-04-02T09:31:48.000Z,3040
2023-04-02T09:34:11.506Z,3264
2023-04-02T09:34:20.000Z,3372
2023-04-02T09:35:37.000Z,3344
2023-04-02T09:37:08.370Z,3532
2023-04-02T09:38:23.593Z,3644
2023-04-02T09:39:38.804Z,3608
2023-04-02T09:40:38.000Z,3748
2023-04-02T09:41:54.000Z,3852
2023-04-02T09:43:09.000Z,3844
2023-04-02T09:44:39.664Z,3960
2023-04-02T09:45:54.634Z,3700
2023-04-02T09:47:10.088Z,4064
2023-04-02T09:48:11.000Z,4136
2023-04-02T09:49:42.476Z,3456
2023-04-02T09:50:43.000Z,3456
2023-04-02T09:52:14.869Z,3536
2023-04-02T09:53:30.813Z,3520
2023-04-02T09:54:47.259Z,3460
2023-04-02T09:56:03.200Z,3536
2023-04-02T09:57:19.650Z,3784
2023-04-02T09:58:35.839Z,4444
2023-04-02T09:59:51.781Z,4332
2023-04-02T10:01:08.228Z,4472
2023-04-02T10:02:09.000Z,4304
2023-04-02T10:03:24.000Z,4504
2023-04-02T10:04:40.000Z,4616
2023-04-02T10:06:11.045Z,4352
2023-04-02T10:07:26.980Z,4476
2023-04-02T10:08:28.000Z,4424
2023-04-02T10:09:59.368Z,4756
2023-04-02T10:11:00.000Z,4692
2023-04-02T10:12:31.033Z,5216
2023-04-02T10:13:31.000Z,4760
2023-04-02T10:14:46.000Z,4520
2023-04-02T10:16:01.000Z,4812
2023-04-02T10:17:17.000Z,4804
2023-04-02T10:18:48.810Z,4616
2023-04-02T10:19:50.000Z,4632
2023-04-02T10:21:06.000Z,4572
2023-04-02T10:22:37.391Z,4820
2023-04-02T10:24:19.284Z,4864
2023-04-02T10:25:10.018Z,5408
2023-04-02T10:26:26.221Z,4860
2023-04-02T10:27:27.000Z,5172
2023-04-02T10:28:58.611Z,5112
2023-04-02T10:30:14.553Z,5380
2023-04-02T10:31:30.747Z,5512
2023-04-02T10:32:45.957Z,4720
2023-04-02T10:34:02.150Z,4440
2023-04-02T10:35:03.000Z,4228
2023-04-02T10:36:19.000Z,3968
2023-04-02T10:37:50.731Z,3892
2023-04-02T10:38:52.000Z,3684
2023-04-02T10:40:23.119Z,3648
2023-04-02T10:41:23.000Z,3900
2023-04-02T10:41:57.000Z,3584
2023-04-02T10:42:53.796Z,4056
2023-04-02T10:44:09.743Z,3964
2023-04-02T10:45:25.209Z,4072
2023-04-02T10:46:41.157Z,3916
2023-04-02T10:49:57.130Z,3292
2023-04-02T10:50:28.754Z,3432
2023-04-02T10:51:44.948Z,3480
2023-04-02T10:53:01.411Z,3572
2023-04-02T10:54:02.000Z,3632
2023-04-02T10:55:33.529Z,3712
2023-04-02T10:56:34.000Z,3680
2023-04-02T10:58:06.171Z,3688
2023-04-02T10:59:22.110Z,3584
2023-04-02T11:00:38.565Z,3628
2023-04-02T11:01:54.741Z,3612
2023-04-02T11:02:55.000Z,3880
2023-04-02T11:04:11.000Z,3860
2023-04-02T11:05:42.349Z,4384
2023-04-02T11:06:58.535Z,4820
2023-04-02T11:07:59.000Z,4580
2023-04-02T11:09:30.676Z,4264
2023-04-02T11:10:32.000Z,4360
2023-04-02T11:12:02.089Z,4248
2023-04-02T11:13:17.299Z,3936
2023-04-02T11:13:38.000Z,4524
2023-04-02T11:14:33.492Z,3704
2023-04-02T11:15:49.940Z,3840
2023-04-02T11:17:06.121Z,4084
2023-04-02T11:18:22.320Z,4268
2023-04-02T11:20:54.712Z,4776
2023-04-02T11:22:10.654Z,4920
2023-04-02T11:23:26.847Z,4984
2023-04-02T11:24:43.041Z,4796
2023-04-02T11:25:59.235Z,4708
2023-04-02T11:27:00.000Z,4744
2023-04-02T11:28:16.000Z,4852
2023-04-02T11:29:32.000Z,4992
2023-04-02T11:31:03.025Z,4780
2023-04-02T11:32:19.219Z,4680
2023-04-02T11:33:35.413Z,4800
2023-04-02T11:34:51.856Z,4684
2023-04-02T11:36:08.050Z,5500
2023-04-02T11:37:09.000Z,8148
2023-04-02T11:38:39.472Z,9624
2023-04-02T11:39:54.424Z,10404
2023-04-02T11:41:10.619Z,10332
2023-04-02T11:42:26.812Z,9372
2023-04-02T11:43:43.252Z,10844
2023-04-02T11:44:59.201Z,12372
2023-04-02T11:46:15.394Z,12820
2023-04-02T11:47:16.000Z,12596
2023-04-02T11:48:47.781Z,11908
2023-04-02T11:49:49.000Z,10612
2023-04-02T11:51:05.000Z,9088
2023-04-02T11:52:36.613Z,9864
2023-04-02T11:53:52.557Z,10032
2023-04-02T11:54:53.000Z,10868
2023-04-02T11:56:23.961Z,10692
2023-04-02T11:56:45.000Z,6880
2023-04-02T11:57:25.000Z,9956
2023-04-02T11:58:41.000Z,8716
2023-04-02T11:59:57.000Z,8640
2023-04-02T12:01:13.000Z,7960
2023-04-02T12:04:01.363Z,6720
2023-04-02T12:05:01.000Z,6120
2023-04-02T12:06:16.000Z,5604
2023-04-02T12:07:47.747Z,4988
2023-04-02T12:09:03.940Z,4424
2023-04-02T12:10:20.380Z,4264
2023-04-02T12:11:36.577Z,4204
2023-04-02T12:12:37.000Z,4188
2023-04-02T12:14:08.715Z,4388
2023-04-02T12:15:24.909Z,4940
2023-04-02T12:16:41.102Z,4424
2023-04-02T12:18:00.174Z,5052
2023-04-02T12:19:13.489Z,4656
2023-04-02T12:20:14.000Z,4864
2023-04-02T12:21:46.129Z,6080
2023-04-02T12:23:01.332Z,7740
2023-04-02T12:24:02.000Z,8416
2023-04-02T12:25:18.000Z,8092
2023-04-02T12:26:49.917Z,8884
2023-04-02T12:28:05.861Z,8388
2023-04-02T12:29:07.000Z,7824
2023-04-02T12:30:38.497Z,6780
2023-04-02T12:31:54.443Z,5964
2023-04-02T12:33:10.637Z,5692
2023-04-02T12:34:26.830Z,5696
2023-04-02T12:35:43.024Z,5792
2023-04-02T12:36:44.000Z,5620
2023-04-02T12:38:15.411Z,5620
2023-04-02T12:39:30.621Z,5660
2023-04-02T12:40:46.816Z,5516
2023-04-02T12:42:03.009Z,5712
2023-04-02T12:43:19.453Z,6148
2023-04-02T12:44:35.657Z,6916
2023-04-02T12:45:51.590Z,7136
2023-04-02T12:47:08.058Z,6288
2023-04-02T12:48:09.000Z,6124
2023-04-02T12:49:40.171Z,6300
2023-04-02T12:50:56.613Z,5396
2023-04-02T12:51:57.000Z,5160
2023-04-02T12:53:28.755Z,4604
2023-04-02T12:54:45.194Z,4176
2023-04-02T12:55:05.000Z,4800
2023-04-02T12:55:45.000Z,4200
2023-04-02T12:57:16.356Z,4724
2023-04-02T12:58:17.000Z,5068
2023-04-02T12:59:33.000Z,4992
2023-04-02T13:02:21.385Z,4800
2023-04-02T13:03:37.330Z,5040
2023-04-02T13:04:53.769Z,5152
2023-04-02T13:05:54.000Z,5368
2023-04-02T13:07:11.000Z,5544
2023-04-02T13:07:46.000Z,6180
2023-04-02T13:08:27.000Z,5548
2023-04-02T13:09:58.307Z,5556
2023-04-02T13:10:18.000Z,5772
2023-04-02T13:11:14.745Z,5692
2023-04-02T13:12:29.713Z,6064
2023-04-02T13:15:02.104Z,5848
2023-04-02T13:17:34.746Z,5684
2023-04-02T13:18:50.690Z,5564
2023-04-02T13:20:06.886Z,5608
2023-04-02T13:21:23.340Z,5464
2023-04-02T13:22:39.527Z,5672
2023-04-02T13:23:40.000Z,5432
2023-04-02T13:25:11.912Z,5288
2023-04-02T13:26:13.000Z,5328
2023-04-02T13:27:44.309Z,5464
2023-04-02T13:28:44.000Z,5372
2023-04-02T13:30:15.466Z,5192
2023-04-02T13:31:16.000Z,4888
2023-04-02T13:32:47.858Z,4744
2023-04-02T13:34:04.300Z,4636
2023-04-02T13:35:20.249Z,4752
2023-04-02T13:35:41.000Z,5460
2023-04-02T13:36:36.688Z,5028
2023-04-02T13:37:37.000Z,5244
2023-04-02T13:39:08.835Z,5508
2023-04-02T13:40:10.000Z,5512
2023-04-02T13:42:57.423Z,5624
2023-04-02T13:44:13.618Z,5464
2023-04-02T13:45:29.078Z,5224
2023-04-02T13:45:50.000Z,4280
2023-04-02T13:46:45.278Z,5016
2023-04-02T13:48:01.464Z,5056
2023-04-02T13:49:17.417Z,4988
2023-04-02T13:50:33.613Z,4472
2023-04-02T13:52:51.000Z,4252
2023-04-02T13:54:07.000Z,4360
2023-04-02T13:55:38.664Z,4696
2023-04-02T13:56:39.000Z,4884
2023-04-02T13:58:10.786Z,5044
2023-04-02T13:58:31.000Z,5048
2023-04-02T13:59:26.981Z,5372
2023-04-02T14:00:28.000Z,5204
2023-04-02T14:01:43.000Z,4720
2023-04-02T14:03:14.850Z,4820
2023-04-02T14:05:47.223Z,4816
2023-04-02T14:07:03.422Z,4808
2023-04-02T14:08:19.367Z,5440
2023-04-02T14:09:35.563Z,5280
2023-04-02T14:10:51.759Z,5216
2023-04-02T14:12:07.954Z,5472
2023-04-02T14:13:24.395Z,5712
2023-04-02T14:14:40.345Z,5620
2023-04-02T14:15:56.790Z,5920
2023-04-02T14:17:12.737Z,5132
2023-04-02T14:18:27.948Z,4720
2023-04-02T14:19:44.144Z,4496
2023-04-02T14:20:59.616Z,4728
2023-04-02T14:22:15.556Z,4576
2023-04-02T14:23:31.752Z,4260
2023-04-02T14:24:48.192Z,4296
2023-04-02T14:26:04.386Z,4600
2023-04-02T14:27:20.339Z,4816
2023-04-02T14:28:36.535Z,4612
2023-04-02T14:29:37.000Z,4744
2023-04-02T14:30:14.000Z,3980
2023-04-02T14:31:09.172Z,4800
2023-04-02T14:32:25.122Z,4184
2023-04-02T14:33:41.318Z,4096
2023-04-02T14:34:57.513Z,4152
2023-04-02T14:37:29.166Z,4076
2023-04-02T14:38:30.000Z,4200
2023-04-02T14:40:01.563Z,4456
2023-04-02T14:41:17.757Z,4228
2023-04-02T14:42:33.703Z,3976
2023-04-02T14:43:49.899Z,3924
2023-04-02T14:45:06.094Z,3804
2023-04-02T14:46:07.000Z,3764
2023-04-02T14:47:38.486Z,3744
2023-04-02T14:48:54.933Z,3592
2023-04-02T14:50:11.124Z,3844
2023-04-02T14:51:12.000Z,3796
2023-04-02T14:52:43.268Z,3808
2023-04-02T14:53:44.000Z,3704
2023-04-02T14:55:14.930Z,3580
2023-04-02T14:56:31.110Z,3572
2023-04-02T14:57:47.067Z,3804
2023-04-02T14:59:03.263Z,3516
2023-04-02T14:59:24.000Z,3120
2023-04-02T15:00:19.458Z,3208
2023-04-02T15:01:35.910Z,3144
2023-04-02T15:02:52.093Z,3208
2023-04-02T15:04:08.294Z,3136
2023-04-02T15:04:29.000Z,3168
2023-04-02T15:06:40.437Z,3048
2023-04-02T15:07:41.000Z,3068
2023-04-02T15:09:12.828Z,3144
2023-04-02T15:11:29.000Z,3156
2023-04-02T15:13:00.430Z,3124
2023-04-02T15:14:16.626Z,3352
2023-04-02T15:15:17.000Z,3116
2023-04-02T15:16:49.265Z,2700
2023-04-02T15:18:05.456Z,2616
2023-04-02T15:19:21.653Z,2676
2023-04-02T15:20:37.854Z,2608
2023-04-02T15:21:53.800Z,2572
2023-04-02T15:22:55.000Z,2544
2023-04-02T15:24:26.191Z,2480
2023-04-02T15:25:42.386Z,2400
2023-04-02T15:26:58.582Z,2400
2023-04-02T15:27:19.000Z,2184
2023-04-02T15:28:14.039Z,2368
2023-04-02T15:29:30.235Z,2308
2023-04-02T15:30:46.433Z,2224
2023-04-02T15:31:47.000Z,2208
2023-04-02T15:34:35.025Z,2144
2023-04-02T15:35:36.000Z,2132
2023-04-02T15:37:07.163Z,2128
2023-04-02T15:38:23.358Z,2164
2023-04-02T15:39:24.000Z,2212
2023-04-02T15:40:56.003Z,2244
2023-04-02T15:42:11.945Z,2256
2023-04-02T15:43:28.391Z,2236
2023-04-02T15:44:44.337Z,2180
2023-04-02T15:45:59.548Z,2152
2023-04-02T15:47:15.744Z,2100
2023-04-02T15:48:31.939Z,2028
2023-04-02T15:49:48.394Z,1976
2023-04-02T15:51:04.583Z,1940
2023-04-02T15:52:20.527Z,1936
2023-04-02T15:53:36.975Z,1960
2023-04-02T15:54:52.918Z,1976
2023-04-02T15:55:14.000Z,1968
2023-04-02T15:55:54.000Z,1992
2023-04-02T15:57:25.551Z,2024
2023-04-02T15:58:41.769Z,2040
2023-04-02T15:59:01.000Z,1908
2023-04-02T15:59:57.951Z,2024
2023-04-02T16:02:14.000Z,1928
2023-04-02T16:03:45.303Z,1912
2023-04-02T16:06:17.694Z,1876
2023-04-02T16:07:34.138Z,1852
2023-04-02T16:08:50.338Z,1828
2023-04-02T16:09:51.000Z,1808
2023-04-02T16:11:22.477Z,1788
2023-04-02T16:12:38.919Z,1776
2023-04-02T16:13:40.000Z,1764
2023-04-02T16:15:11.064Z,1712
2023-04-02T16:16:27.259Z,1652
2023-04-02T16:17:28.000Z,1592
2023-04-02T16:18:43.000Z,1596
2023-04-02T16:20:14.863Z,1596
2023-04-02T16:21:16.000Z,1580
2023-04-02T16:22:47.502Z,1540
2023-04-02T16:24:03.692Z,1536
2023-04-02T16:25:19.645Z,1512
2023-04-02T16:26:21.000Z,1484
2023-04-02T16:27:52.292Z,1500
2023-04-02T16:29:08.479Z,1504
2023-04-02T16:30:24.674Z,1488
2023-04-02T16:31:40.889Z,1480
2023-04-02T16:32:56.819Z,1516
2023-04-02T16:34:13.014Z,1548
2023-04-02T16:35:28.484Z,1536
2023-04-02T16:36:29.000Z,1540
2023-04-02T16:38:00.617Z,1508
2023-04-02T16:39:01.000Z,1504
2023-04-02T16:40:33.008Z,1500
2023-04-02T16:41:49.203Z,1488
2023-04-02T16:43:05.646Z,1476
2023-04-02T16:44:06.000Z,1472
2023-04-02T16:45:37.791Z,1460
2023-04-02T16:46:39.000Z,1464
2023-04-02T16:48:10.182Z,1432
2023-04-02T16:49:26.632Z,1356
2023-04-02T16:50:42.573Z,1312
2023-04-02T16:51:58.769Z,1292
2023-04-02T16:53:13.981Z,1292
2023-04-02T16:54:30.176Z,1296
2023-04-02T16:55:46.622Z,1288
2023-04-02T16:56:47.000Z,1276
2023-04-02T16:58:19.022Z,1256
2023-04-02T16:59:35.205Z,1252
2023-04-02T17:00:51.155Z,1236
2023-04-02T17:01:52.000Z,1196
2023-04-02T17:03:23.805Z,1172
2023-04-02T17:04:24.000Z,1208
2023-04-02T17:05:55.937Z,1248
2023-04-02T17:07:12.132Z,1224
2023-04-02T17:08:28.580Z,1192
2023-04-02T17:09:43.792Z,1164
2023-04-02T17:10:44.000Z,1144
2023-04-02T17:12:01.000Z,1108
2023-04-02T17:13:32.127Z,1076
2023-04-02T17:14:48.323Z,1072
2023-04-02T17:16:04.790Z,1048
2023-04-02T17:17:20.714Z,1016
2023-04-02T17:18:36.910Z,1012
2023-04-02T17:19:38.000Z,988
2023-04-02T17:21:09.301Z,912
2023-04-02T17:22:10.000Z,848
2023-04-02T17:23:41.692Z,816
2023-04-02T17:24:43.000Z,796